createdAt,value
2018-04-18T00:03:44.302Z,96883
2018-04-18T00:09:13.200Z,96880
2018-04-18T00:14:41.345Z,96874
2018-04-18T00:20:09.502Z,96880
2018-04-18T00:25:37.644Z,96884
2018-04-18T00:31:06.729Z,96887
2018-04-18T00:36:34.884Z,96884
2018-04-18T00:42:03.030Z,96885
2018-04-18T00:47:31.205Z,96882
2018-04-18T00:53:00.218Z,96891
2018-04-18T00:58:28.356Z,96888
2018-04-18T01:03:57.339Z,96889
2018-04-18T01:09:25.506Z,96898
2018-04-18T01:14:53.649Z,96883
2018-04-18T01:20:22.537Z,96887
2018-04-18T01:25:50.678Z,96886
2018-04-18T01:31:18.804Z,96885
2018-04-18T01:36:47.907Z,96889
2018-04-18T01:42:16.067Z,96894
2018-04-18T01:47:44.215Z,96907
2018-04-18T01:53:12.353Z,96899
2018-04-18T01:58:40.508Z,96899
2018-04-18T02:04:08.648Z,96902
2018-04-18T02:09:37.548Z,96905
2018-04-18T02:15:05.702Z,96904
2018-04-18T02:20:33.853Z,96902
2018-04-18T02:26:02.024Z,96908
2018-04-18T02:31:30.189Z,96914
2018-04-18T02:36:58.342Z,96910
2018-04-18T02:42:26.514Z,96914
2018-04-18T02:47:55.417Z,96916
2018-04-18T02:53:23.581Z,96911
2018-04-18T02:58:51.708Z,96914
2018-04-18T03:04:19.876Z,96914
2018-04-18T03:09:48.018Z,96913
2018-04-18T03:15:16.901Z,96912
2018-04-18T03:20:45.023Z,96910
2018-04-18T03:26:13.153Z,96912
2018-04-18T03:31:41.272Z,96915
2018-04-18T03:37:09.410Z,96923
2018-04-18T03:42:37.547Z,96919
2018-04-18T03:48:05.675Z,96911
2018-04-18T03:53:35.524Z,96923
2018-04-18T03:59:03.664Z,96923
2018-04-18T04:04:31.806Z,96936
2018-04-18T04:09:59.946Z,96938
2018-04-18T04:15:28.087Z,96940
2018-04-18T04:21:14.163Z,96946
2018-04-18T04:26:42.321Z,96950
2018-04-18T04:32:12.537Z,96960
2018-04-18T04:37:45.583Z,96956
2018-04-18T04:43:14.489Z,96970
2018-04-18T04:48:42.620Z,96979
2018-04-18T04:54:10.752Z,96977
2018-04-18T04:59:39.678Z,96982
2018-04-18T05:05:08.594Z,97005
2018-04-18T05:10:36.732Z,97005
2018-04-18T05:16:06.836Z,97005
2018-04-18T05:21:35.957Z,97009
2018-04-18T05:27:04.865Z,97006
2018-04-18T05:32:32.996Z,97012
2018-04-18T05:38:01.151Z,97014
2018-04-18T05:43:29.453Z,97018
2018-04-18T05:49:03.916Z,97022
2018-04-18T05:54:32.990Z,97020
2018-04-18T06:00:04.086Z,97021
2018-04-18T06:05:32.265Z,97029
2018-04-18T06:11:01.184Z,97027
2018-04-18T06:16:32.240Z,97034
2018-04-18T06:22:00.447Z,97035
2018-04-18T06:27:28.842Z,97035
2018-04-18T06:32:57.044Z,97026
2018-04-18T06:38:25.993Z,97041
2018-04-18T06:43:54.934Z,97046
2018-04-18T06:49:23.868Z,97047
2018-04-18T06:54:53.074Z,97042
2018-04-18T07:00:22.033Z,97039
2018-04-18T07:05:51.094Z,97042
2018-04-18T07:11:19.232Z,97042
2018-04-18T07:16:51.531Z,97048
2018-04-18T07:22:19.680Z,97049
2018-04-18T07:27:47.824Z,97051
2018-04-18T07:33:15.967Z,97052
2018-04-18T07:38:44.110Z,97058
2018-04-18T07:44:12.248Z,97063
2018-04-18T07:49:40.397Z,97066
2018-04-18T07:55:08.540Z,97076
2018-04-18T08:00:37.408Z,97075
2018-04-18T08:06:06.361Z,97069
2018-04-18T08:11:34.545Z,97071
2018-04-18T08:17:02.917Z,97077
2018-04-18T08:22:31.173Z,97075
2018-04-18T08:27:59.543Z,97072
2018-04-18T08:33:28.499Z,97081
2018-04-18T08:38:56.661Z,97077
2018-04-18T08:44:24.823Z,97085
2018-04-18T08:49:52.965Z,97084
2018-04-18T08:55:21.117Z,97085
2018-04-18T09:00:49.252Z,97086
2018-04-18T09:06:17.405Z,97086
2018-04-18T09:11:46.299Z,97084
2018-04-18T09:17:14.457Z,97088
2018-04-18T09:22:43.387Z,97084
2018-04-18T09:28:12.316Z,97080
2018-04-18T09:33:40.462Z,97079
2018-04-18T09:39:08.598Z,97081
2018-04-18T09:44:36.757Z,97083
2018-04-18T09:50:04.905Z,97087
2018-04-18T09:55:33.819Z,97076
2018-04-18T10:01:01.977Z,97078
2018-04-18T10:06:30.159Z,97079
2018-04-18T10:11:58.329Z,97083
2018-04-18T10:17:26.485Z,97080
2018-04-18T10:22:54.648Z,97081
2018-04-18T10:28:23.574Z,97084
2018-04-18T10:33:51.721Z,97075
2018-04-18T10:39:19.860Z,97080
2018-04-18T10:44:48.003Z,97074
2018-04-18T10:50:16.150Z,97082
2018-04-18T10:55:44.534Z,97084
2018-04-18T11:01:13.691Z,97089
2018-04-18T11:06:41.830Z,97074
2018-04-18T11:12:09.982Z,97073
2018-04-18T11:17:38.107Z,97061
2018-04-18T11:23:06.300Z,97071
2018-04-18T11:28:35.317Z,97056
2018-04-18T11:34:03.493Z,97058
2018-04-18T11:39:31.800Z,97056
2018-04-18T11:45:00.028Z,97054
2018-04-18T11:50:28.197Z,97049
2018-04-18T11:55:56.399Z,97046
2018-04-18T12:01:24.558Z,97039
2018-04-18T12:06:53.475Z,97045
2018-04-18T12:12:21.633Z,97049
2018-04-18T12:17:50.592Z,97044
2018-04-18T12:23:18.727Z,97038
2018-04-18T12:28:46.870Z,97034
2018-04-18T12:34:15.945Z,97042
2018-04-18T12:39:44.126Z,97034
2018-04-18T12:45:12.273Z,97031
2018-04-18T12:50:40.432Z,97036
2018-04-18T12:56:08.613Z,97025
2018-04-18T13:01:36.941Z,97030
2018-04-18T13:07:05.913Z,97019
2018-04-18T13:12:34.077Z,97022
2018-04-18T13:18:02.240Z,97022
2018-04-18T13:23:30.509Z,97009
2018-04-18T13:28:58.675Z,97012
2018-04-18T13:34:27.509Z,97005
2018-04-18T13:39:55.670Z,97008
2018-04-18T13:45:23.844Z,97004
2018-04-18T13:50:52.749Z,97003
2018-04-18T13:56:20.986Z,97003
2018-04-18T14:01:49.918Z,96999
2018-04-18T14:07:18.077Z,96981
2018-04-18T14:12:46.203Z,96941
2018-04-18T14:18:14.383Z,96929
2018-04-18T14:23:42.569Z,96924
2018-04-18T14:29:10.808Z,96920
2018-04-18T14:34:39.081Z,96911
2018-04-18T14:40:07.278Z,96910
2018-04-18T14:45:36.215Z,96903
2018-04-18T14:51:05.222Z,96917
2018-04-18T14:56:33.346Z,96918
2018-04-18T15:02:01.559Z,96927
2018-04-18T15:07:29.754Z,96996
2018-04-18T15:12:57.975Z,96987
2018-04-18T15:18:26.161Z,96991
2018-04-18T15:23:55.094Z,96988
2018-04-18T15:29:24.069Z,96974
2018-04-18T15:34:52.275Z,96976
2018-04-18T15:40:20.618Z,96947
2018-04-18T15:45:48.856Z,96987
2018-04-18T15:51:17.066Z,96985
2018-04-18T15:56:46.092Z,96981
2018-04-18T16:02:14.317Z,96978
2018-04-18T16:07:42.505Z,96982
2018-04-18T16:13:12.085Z,96981
2018-04-18T16:18:40.315Z,96980
2018-04-18T16:24:08.524Z,96979
2018-04-18T16:29:43.454Z,96984
2018-04-18T16:35:11.674Z,96983
2018-04-18T16:40:39.829Z,96979
2018-04-18T16:46:08.002Z,96978
2018-04-18T16:51:36.172Z,96983
2018-04-18T16:57:04.422Z,96975
2018-04-18T17:02:33.632Z,96977
2018-04-18T17:08:02.645Z,96978
2018-04-18T17:13:30.838Z,96980
2018-04-18T17:18:59.016Z,96973
2018-04-18T17:24:27.248Z,96978
2018-04-18T17:29:55.405Z,96984
2018-04-18T17:35:23.608Z,96985
2018-04-18T17:40:51.782Z,96978
2018-04-18T17:46:20.720Z,96984
2018-04-18T17:51:49.640Z,96989
2018-04-18T17:57:18.551Z,96979
2018-04-18T18:02:46.720Z,96972
2018-04-18T18:08:15.668Z,96978
2018-04-18T18:13:44.622Z,96971
2018-04-18T18:19:12.784Z,96982
2018-04-18T18:24:40.959Z,96979
2018-04-18T18:30:09.106Z,96983
2018-04-18T18:35:38.204Z,97003
2018-04-18T18:41:07.147Z,96993
2018-04-18T18:46:36.093Z,96998
2018-04-18T18:52:04.271Z,97009
2018-04-18T18:57:33.236Z,97013
2018-04-18T19:03:03.113Z,97011
2018-04-18T19:08:31.292Z,97011
2018-04-18T19:14:00.510Z,97013
2018-04-18T19:19:28.705Z,97017
2018-04-18T19:24:56.945Z,97018
2018-04-18T19:30:25.146Z,97015
2018-04-18T19:35:53.400Z,97011
2018-04-18T19:41:23.562Z,97006
2018-04-18T19:46:51.688Z,97009
2018-04-18T19:52:22.886Z,97015
2018-04-18T19:57:55.411Z,97005
2018-04-18T20:03:24.620Z,97007
2018-04-18T20:08:53.633Z,96990
2018-04-18T20:14:22.833Z,96989
2018-04-18T20:19:51.031Z,96999
2018-04-18T20:25:20.167Z,96991
2018-04-18T20:30:48.325Z,96988
2018-04-18T20:36:17.233Z,96982
2018-04-18T20:42:02.212Z,96997
2018-04-18T20:47:30.433Z,96989
2018-04-18T20:52:59.436Z,96987
2018-04-18T20:58:27.696Z,96987
2018-04-18T21:03:56.620Z,96987
2018-04-18T21:09:25.541Z,96981
2018-04-18T21:14:57.915Z,96983
2018-04-18T21:20:26.115Z,96987
2018-04-18T21:25:54.278Z,96993
2018-04-18T21:31:22.444Z,96990
2018-04-18T21:36:51.344Z,96984
2018-04-18T21:42:21.428Z,96987
2018-04-18T21:47:49.572Z,96988
2018-04-18T21:53:18.469Z,96987
2018-04-18T21:58:46.703Z,96990
2018-04-18T22:16:09.002Z,96981
2018-04-18T22:21:37.157Z,96975
2018-04-18T22:27:06.068Z,96973
2018-04-18T22:32:34.209Z,96979
2018-04-18T22:38:03.143Z,96966
2018-04-18T22:43:31.363Z,96970
2018-04-18T22:48:59.502Z,96973
2018-04-18T22:54:28.434Z,96967
2018-04-18T22:59:57.479Z,96969
2018-04-18T23:05:25.666Z,96969
2018-04-18T23:10:53.824Z,96957
2018-04-18T23:16:22.038Z,96958
2018-04-18T23:21:50.964Z,96950
2018-04-18T23:27:19.142Z,96949
2018-04-18T23:32:47.325Z,96952
2018-04-18T23:38:15.477Z,96941
2018-04-18T23:43:43.648Z,96938
2018-04-18T23:49:12.565Z,96926
2018-04-18T23:54:40.738Z,96925
